CheckWX is a tool to help pilots better visualize weather data.  It is not intended as a substitute for an official pre-flight weather briefing.

03:32:51 UTC

EGTC METAR
Cranfield Airport
Cranfield, United Kingdom
Current

12 hours ago

EGTC 041520Z 22015KT 9999 DZ BCK014 19/16 Q1009
Observed
Jul-4 @ 15:20 UTC
Wind
  • 220° at 15 KTS
Visibility
10,000+ meters
Conditions
Drizzle
Cloud Levels
Temperature
19°C / 66°F
Dewpoint
16°C / 61°F
Humidity
83%
Altimeter
29.79" Hg
Pressure
1008.92 hPa
Previous

13 hours ago

EGTC 041450Z 22018KT 9999 DZ BKN014 BKN022 18/16 Q1009
Observed
Jul-4 @ 14:50 UTC
Wind
  • 220° at 18 KTS
Visibility
10,000+ meters
Flight Rules
MVFR
Conditions
Drizzle
Cloud Levels
  • Broken at 1,400' AGL
  • Broken at 2,200' AGL
Temperature
18°C / 64°F
Dewpoint
16°C / 61°F
Humidity
88%
Altimeter
29.79" Hg
Pressure
1008.92 hPa
Previous

13 hours ago

EGTC 041420Z 22018KT 9000 DZ BKN014 BKN018 19/16 Q1009
Observed
Jul-4 @ 14:20 UTC
Wind
  • 220° at 18 KTS
Visibility
8996 meters
Flight Rules
MVFR
Conditions
Drizzle
Cloud Levels
  • Broken at 1,400' AGL
  • Broken at 1,800' AGL
Temperature
19°C / 66°F
Dewpoint
16°C / 61°F
Humidity
83%
Altimeter
29.79" Hg
Pressure
1008.92 hPa